Time;durP1;ratioP1;P1;durP2;ratioP2;P2;SDS_P1;SDS_P2;PMS_P1;PMS_P2;Temp;Humidity;BMP_temperature;BMP_pressure;BME280_temperature;BME280_humidity;BME280_pressure;Samples;Min_cycle;Max_cycle;Signal;HPM_P1;HPM_P2
2023/11/18 00:00:33;;;;;;;;;6.25;6.25;;;;;4.81;80.89;99295.22;6303120;20;1805402;-45
2023/11/18 00:03:01;;;;;;;;;8.00;8.00;;;;;4.70;82.39;99293.06;6317635;20;2729506;-43
2023/11/18 00:05:29;;;;;;;;;9.00;7.00;;;;;4.62;83.26;99296.03;6318022;20;2758617;-45
2023/11/18 00:07:57;;;;;;;;;22.67;17.00;;;;;4.82;82.11;99302.31;6317503;20;3571096;-44
2023/11/18 00:10:26;;;;;;;;;14.33;14.00;;;;;4.87;81.47;99302.06;6285448;20;3548189;-43
2023/11/18 00:12:55;;;;;;;;;25.00;19.33;;;;;4.83;82.77;99312.00;6283705;20;3570139;-46
2023/11/18 00:15:23;;;;;;;;;12.00;10.00;;;;;4.71;83.43;99309.88;6317019;20;2777375;-47
2023/11/18 00:17:52;;;;;;;;;11.00;8.00;;;;;4.73;83.64;99313.31;6286117;20;2760813;-43
2023/11/18 00:20:20;;;;;;;;;11.00;11.00;;;;;4.75;83.60;99316.78;6282979;20;2792150;-45
2023/11/18 00:22:48;;;;;;;;;13.50;12.00;;;;;4.68;84.46;99318.84;6282696;20;2797129;-45
2023/11/18 00:25:17;;;;;;;;;11.20;8.40;;;;;4.65;85.08;99315.47;6310310;20;2759625;-45
2023/11/18 00:27:46;;;;;;;;;12.67;12.67;;;;;4.49;86.27;99313.47;6313733;20;2809728;-46
2023/11/18 00:30:15;;;;;;;;;11.00;8.00;;;;;4.66;85.88;99314.50;6315393;20;2767024;-47
2023/11/18 00:32:43;;;;;;;;;6.00;5.50;;;;;4.50;86.45;99314.31;6281901;20;2749244;-46
2023/11/18 00:35:11;;;;;;;;;11.00;11.00;;;;;4.59;86.29;99320.09;6315153;20;2775450;-46
2023/11/18 00:37:39;;;;;;;;;12.00;11.00;;;;;4.53;86.41;99320.38;6283833;20;2785688;-46
2023/11/18 00:40:09;;;;;;;;;11.50;8.00;;;;;4.33;87.87;99333.66;6285440;20;2774307;-46
2023/11/18 00:42:38;;;;;;;;;8.00;8.00;;;;;4.59;86.53;99330.75;6297414;20;1810746;-47
2023/11/18 00:45:08;;;;;;;;;15.80;11.80;;;;;4.58;86.66;99331.69;6339934;20;2798315;-46
2023/11/18 00:47:36;;;;;;;;;18.00;12.00;;;;;4.52;86.49;99325.75;6284399;20;2802554;-45
2023/11/18 00:50:08;;;;;;;;;10.50;7.00;;;;;4.57;86.80;99334.41;6285537;20;2763916;-48
2023/11/18 00:52:38;;;;;;;;;13.00;10.50;;;;;4.45;87.07;99341.13;6281573;20;2775266;-47
2023/11/18 00:55:08;;;;;;;;;17.00;12.00;;;;;4.40;88.10;99343.09;6283612;20;2795217;-47
2023/11/18 00:57:39;;;;;;;;;12.00;11.00;;;;;4.34;88.94;99338.88;6283893;20;2787986;-45
2023/11/18 01:00:26;;;;;;;;;9.50;1.75;;;;;4.34;88.28;99338.03;6301773;20;1841899;-46
2023/11/18 01:02:56;;;;;;;;;14.67;14.67;;;;;4.47;88.87;99349.88;6310070;20;2812887;-44
2023/11/18 01:05:24;;;;;;;;;10.00;10.00;;;;;4.57;87.42;99337.06;6314227;20;2781661;-46
2023/11/18 01:07:52;;;;;;;;;14.00;10.50;;;;;4.61;86.96;99342.19;6284936;20;2781574;-47
2023/11/18 01:10:20;;;;;;;;;16.00;12.00;;;;;4.56;87.20;99344.19;6284805;20;2810744;-44
2023/11/18 01:12:48;;;;;;;;;15.50;11.50;;;;;4.32;89.03;99343.41;6278394;20;2789842;-45
2023/11/18 01:15:16;;;;;;;;;15.00;14.00;;;;;4.54;87.80;99340.72;6282306;20;3541970;-45
2023/11/18 01:17:44;;;;;;;;;13.00;11.50;;;;;4.44;88.74;99350.00;6312679;20;2784666;-46
2023/11/18 01:20:13;;;;;;;;;16.00;12.67;;;;;4.46;88.15;99357.91;6281732;20;3530673;-47
2023/11/18 01:22:43;;;;;;;;;17.00;14.00;;;;;4.40;88.53;99349.28;6313119;20;2812838;-45
2023/11/18 01:25:12;;;;;;;;;13.40;10.00;;;;;4.41;88.60;99360.75;6308384;20;2791983;-45
2023/11/18 01:27:40;;;;;;;;;14.00;11.00;;;;;4.52;88.12;99361.16;6282642;20;2786734;-45
2023/11/18 01:30:09;;;;;;;;;15.50;12.00;;;;;4.44;87.92;99360.63;6282302;20;2799362;-45
2023/11/18 01:32:39;;;;;;;;;11.00;11.00;;;;;4.42;88.46;99367.78;6282959;20;2787754;-45
2023/11/18 01:35:12;;;;;;;;;9.83;8.00;;;;;4.22;89.42;99365.13;6323850;20;1808633;-45
2023/11/18 01:37:42;;;;;;;;;16.00;14.40;;;;;4.29;89.59;99356.84;6308955;20;2808695;-44
2023/11/18 01:40:15;;;;;;;;;15.00;13.00;;;;;4.35;89.89;99366.34;6283855;20;2806558;-44
2023/11/18 01:42:46;;;;;;;;;11.50;8.75;;;;;4.46;88.55;99364.09;6297251;20;1819100;-45
2023/11/18 01:45:16;;;;;;;;;12.00;12.00;;;;;4.25;88.88;99355.22;6312333;20;2809756;-45
2023/11/18 01:47:45;;;;;;;;;17.00;14.00;;;;;4.22;89.19;99354.50;6278906;20;2812866;-46
2023/11/18 01:50:15;;;;;;;;;3.00;2.00;;;;;4.18;90.00;99356.38;6281605;20;3439927;-48
2023/11/18 01:52:48;;;;;;;;;14.86;12.14;;;;;4.31;90.64;99364.72;6348943;20;1820918;-45
2023/11/18 01:55:18;;;;;;;;;13.60;11.80;;;;;4.24;90.59;99363.25;6335250;20;2797104;-44
2023/11/18 01:57:46;;;;;;;;;11.00;10.00;;;;;4.21;90.13;99363.38;6278202;20;2780672;-45
2023/11/18 02:00:18;;;;;;;;;11.71;11.00;;;;;4.23;90.44;99372.16;6322584;20;1821106;-45
2023/11/18 02:02:49;;;;;;;;;14.60;12.40;;;;;4.14;91.25;99363.63;6337344;20;2789842;-47
2023/11/18 02:05:17;;;;;;;;;15.00;12.00;;;;;4.25;90.54;99357.03;6282804;20;2801321;-45
2023/11/18 02:07:46;;;;;;;;;15.00;11.50;;;;;4.28;89.81;99363.06;6281574;20;2788828;-46
2023/11/18 02:10:15;;;;;;;;;11.50;11.50;;;;;4.01;91.37;99357.09;6282918;20;2796143;-46
2023/11/18 02:13:05;;;;;;;;;8.00;8.00;;;;;4.11;91.13;99358.44;6282661;20;2754507;-42
2023/11/18 02:15:36;;;;;;;;;14.40;11.20;;;;;4.13;91.36;99355.72;6334904;20;2786821;-43
2023/11/18 02:18:09;;;;;;;;;16.00;12.00;;;;;4.10;91.47;99361.16;6279216;20;2802370;-42
2023/11/18 02:20:39;;;;;;;;;12.00;11.00;;;;;4.13;91.20;99361.91;6278917;20;2794000;-42
2023/11/18 02:23:09;;;;;;;;;17.20;14.20;;;;;4.11;91.15;99361.09;6304745;20;2821235;-43
2023/11/18 02:25:47;;;;;;;;;8.00;6.25;;;;;4.09;91.60;99360.28;6299729;20;1819113;-42
2023/11/18 02:28:15;;;;;;;;;14.50;14.00;;;;;3.98;92.66;99375.81;6309724;20;2795199;-43
2023/11/18 02:30:45;;;;;;;;;16.00;15.00;;;;;4.17;91.95;99371.47;6283397;20;2821161;-43
2023/11/18 02:33:33;;;;;;;;;12.80;11.00;;;;;4.05;92.35;99373.75;6335571;20;2774296;-42
2023/11/18 02:36:15;;;;;;;;;16.00;11.00;;;;;4.11;92.21;99382.34;6276484;20;2795087;-41
2023/11/18 02:38:50;;;;;;;;;20.50;15.50;;;;;4.10;92.53;99385.06;6279296;20;2822200;-42
2023/11/18 02:41:21;;;;;;;;;17.00;14.33;;;;;4.12;91.49;99376.09;6280121;20;3550349;-42
2023/11/18 02:43:51;;;;;;;;;12.50;12.50;;;;;4.15;91.92;99391.91;6310271;20;2807586;-42
2023/11/18 02:46:21;;;;;;;;;14.50;13.00;;;;;4.00;92.29;99381.03;6278015;20;2802394;-44
2023/11/18 02:48:53;;;;;;;;;13.20;11.00;;;;;4.03;92.03;99381.81;6303539;20;2789870;-42
2023/11/18 02:51:22;;;;;;;;;17.33;14.00;;;;;4.08;92.51;99384.25;6279006;20;3550301;-42
2023/11/18 02:53:50;;;;;;;;;10.50;10.50;;;;;4.12;92.02;99385.88;6309033;20;2772266;-44
2023/11/18 02:56:18;;;;;;;;;14.00;13.00;;;;;4.02;92.14;99379.19;6282331;20;2788875;-43
2023/11/18 02:58:47;;;;;;;;;13.00;12.50;;;;;4.11;92.02;99389.47;6278945;20;2792002;-41
2023/11/18 03:01:15;;;;;;;;;15.00;12.00;;;;;4.12;91.65;99388.53;6277809;20;2802429;-42
2023/11/18 03:03:43;;;;;;;;;15.00;11.00;;;;;4.18;91.24;99382.97;6281525;20;2787802;-42
2023/11/18 03:06:11;;;;;;;;;9.00;9.00;;;;;4.05;91.35;99390.56;6299776;20;1807664;-44
2023/11/18 03:08:41;;;;;;;;;14.00;11.00;;;;;4.10;91.59;99393.88;6312476;20;2788835;-42
2023/11/18 03:11:09;;;;;;;;;10.00;10.00;;;;;4.01;92.07;99398.72;6281418;20;2774358;-44
2023/11/18 03:13:38;;;;;;;;;12.00;11.50;;;;;4.06;92.31;99394.97;6279667;20;2788786;-44
2023/11/18 03:16:11;;;;;;;;;13.00;13.00;;;;;3.94;92.03;99398.09;6276518;20;2783598;-43
2023/11/18 03:18:40;;;;;;;;;12.00;11.00;;;;;4.02;91.45;99401.31;6281534;20;2785059;-43
2023/11/18 03:21:15;;;;;;;;;12.50;10.00;;;;;4.07;91.86;99398.47;6288675;20;2785762;-41
2023/11/18 03:23:43;;;;;;;;;16.00;11.00;;;;;4.13;91.92;99409.75;6294295;20;2796159;-42
2023/11/18 03:26:13;;;;;;;;;11.60;10.20;;;;;4.08;91.20;99417.03;6317000;20;2776328;-47
2023/11/18 03:28:42;;;;;;;;;13.20;11.00;;;;;4.04;92.44;99419.84;6324066;20;2781559;-47
2023/11/18 03:31:11;;;;;;;;;16.50;10.00;;;;;4.13;91.44;99420.38;6289559;20;2791006;-49
2023/11/18 03:33:40;;;;;;;;;13.00;13.00;;;;;4.17;91.21;99421.94;6288407;20;2789868;-50
2023/11/18 03:36:09;;;;;;;;;9.00;9.00;;;;;3.99;92.25;99412.06;6292426;20;2753622;-52
2023/11/18 03:38:41;;;;;;;;;15.43;12.00;;;;;4.05;91.93;99410.94;6362360;20;1805624;-49
2023/11/18 03:41:09;;;;;;;;;11.50;11.00;;;;;4.03;92.62;99428.72;6322673;20;2794087;-49
2023/11/18 03:43:43;;;;;;;;;15.14;11.00;;;;;4.10;91.71;99420.47;6328801;20;1812735;-50
2023/11/18 03:46:11;;;;;;;;;12.00;10.00;;;;;4.13;91.12;99431.00;6320663;20;2785811;-51
2023/11/18 03:48:44;;;;;;;;;14.00;11.57;;;;;4.12;91.72;99428.38;6330668;20;1813281;-52
2023/11/18 03:51:16;;;;;;;;;14.00;10.00;;;;;4.19;91.36;99429.88;6340103;20;1808746;-50
2023/11/18 03:53:44;;;;;;;;;12.50;10.50;;;;;4.11;91.69;99432.84;6322301;20;2775445;-49
2023/11/18 03:56:20;;;;;;;;;11.00;11.00;;;;;4.14;91.73;99437.16;6291989;20;2787776;-48
2023/11/18 03:58:48;;;;;;;;;14.50;12.00;;;;;4.06;91.70;99434.81;6289639;20;2800274;-50
2023/11/18 04:01:26;;;;;;;;;16.00;11.00;;;;;4.03;91.38;99437.59;6290439;20;2785834;-52
2023/11/18 04:03:55;;;;;;;;;11.50;10.50;;;;;4.14;91.59;99440.69;6289486;20;2788882;-48
2023/11/18 04:06:25;;;;;;;;;11.60;9.80;;;;;4.21;91.19;99437.78;6316131;20;2769104;-50
2023/11/18 04:08:53;;;;;;;;;18.00;11.00;;;;;4.02;92.55;99441.16;6290216;20;2798158;-47
2023/11/18 04:11:23;;;;;;;;;11.40;10.80;;;;;3.95;92.50;99434.38;6314951;20;2796084;-50
2023/11/18 04:13:51;;;;;;;;;11.50;10.50;;;;;4.06;92.09;99434.81;6290699;20;2776730;-50
2023/11/18 04:16:19;;;;;;;;;16.00;13.00;;;;;4.01;93.63;99428.81;6287000;20;2797223;-49
2023/11/18 04:18:47;;;;;;;;;11.00;9.00;;;;;4.05;92.81;99433.06;6292339;20;2765946;-47
2023/11/18 04:21:15;;;;;;;;;10.00;10.00;;;;;4.19;92.00;99435.19;6287758;20;2796566;-47
2023/11/18 04:23:46;;;;;;;;;11.00;10.00;;;;;4.10;92.42;99435.53;6293355;20;2769006;-49
2023/11/18 04:26:14;;;;;;;;;12.00;11.00;;;;;4.14;91.80;99443.34;6288485;20;2783664;-50
2023/11/18 04:28:42;;;;;;;;;15.00;12.00;;;;;4.13;92.76;99440.72;6291815;20;2804484;-48
2023/11/18 04:31:11;;;;;;;;;9.25;9.25;;;;;4.08;92.52;99453.31;6306170;20;1814919;-49
2023/11/18 04:33:40;;;;;;;;;14.50;12.00;;;;;4.18;92.58;99444.94;6315744;20;2791945;-48
2023/11/18 04:36:10;;;;;;;;;7.00;7.00;;;;;3.99;93.47;99446.59;6283965;20;3463764;-49
2023/11/18 04:38:38;;;;;;;;;14.00;14.00;;;;;4.09;93.04;99455.06;6284280;20;2810766;-49
2023/11/18 04:41:06;;;;;;;;;10.50;10.50;;;;;4.17;93.41;99455.63;6282334;20;2796288;-47
2023/11/18 04:43:34;;;;;;;;;14.00;12.00;;;;;4.17;93.06;99451.19;6281462;20;2790027;-49
2023/11/18 04:46:12;;;;;;;;;13.00;10.50;;;;;4.06;94.27;99456.06;6285652;20;2777369;-49
2023/11/18 04:48:40;;;;;;;;;13.50;10.00;;;;;4.18;92.78;99463.53;6282277;20;2773288;-53
2023/11/18 04:51:11;;;;;;;;;13.33;11.00;;;;;4.25;93.13;99460.66;6281254;20;2790954;-49
2023/11/18 04:53:39;;;;;;;;;11.33;7.67;;;;;4.12;93.73;99476.19;6316069;20;3473311;-52
2023/11/18 04:56:10;;;;;;;;;19.00;11.00;;;;;4.23;93.29;99465.16;6281348;20;2808618;-52
2023/11/18 04:58:40;;;;;;;;;11.75;11.75;;;;;4.18;93.35;99465.31;6301181;20;1812919;-52
2023/11/18 05:01:09;;;;;;;;;14.40;10.80;;;;;4.22;93.30;99469.59;6340931;20;2798263;-50
2023/11/18 05:03:39;;;;;;;;;14.00;13.40;;;;;4.19;93.65;99461.75;6309082;20;2797157;-51
2023/11/18 05:06:08;;;;;;;;;13.33;11.00;;;;;4.32;93.33;99475.44;6307060;20;1817016;-52
2023/11/18 05:08:36;;;;;;;;;14.00;11.00;;;;;4.07;94.08;99479.03;6312718;20;2796292;-49
2023/11/18 05:11:06;;;;;;;;;17.60;14.40;;;;;4.18;93.53;99474.16;6305118;20;2823253;-49
2023/11/18 05:13:34;;;;;;;;;13.00;11.00;;;;;4.20;93.84;99478.56;6283640;20;2798219;-53
2023/11/18 05:16:05;;;;;;;;;9.00;9.00;;;;;4.17;93.73;99476.88;6299212;20;1811735;-48
2023/11/18 05:18:36;;;;;;;;;11.50;10.00;;;;;4.28;93.19;99487.09;6313316;20;2762869;-50
2023/11/18 05:21:08;;;;;;;;;12.14;10.57;;;;;4.21;93.32;99474.97;6322763;20;1808110;-50
2023/11/18 05:23:36;;;;;;;;;11.00;10.00;;;;;4.22;93.38;99482.03;6314917;20;2784692;-51
2023/11/18 05:26:05;;;;;;;;;13.00;10.50;;;;;4.31;93.01;99495.81;6279343;20;2789898;-52
2023/11/18 05:28:33;;;;;;;;;14.00;10.00;;;;;4.21;93.10;99486.47;6282440;20;2784695;-48
2023/11/18 05:31:03;;;;;;;;;15.50;13.00;;;;;4.36;93.49;99496.50;6282559;20;2796110;-52
2023/11/18 05:33:31;;;;;;;;;14.50;9.50;;;;;4.32;93.23;99494.03;6285193;20;2773202;-53
2023/11/18 05:36:00;;;;;;;;;5.25;3.00;;;;;4.35;92.92;99504.56;6297965;20;1813875;-50
2023/11/18 05:38:31;;;;;;;;;10.00;9.00;;;;;4.20;93.28;99489.19;6315889;20;2760116;-51
2023/11/18 05:41:03;;;;;;;;;16.00;10.00;;;;;4.31;93.49;99502.91;6337824;20;2778410;-49
2023/11/18 05:43:36;;;;;;;;;11.00;7.00;;;;;4.28;92.81;99500.38;6281530;20;2766013;-50
2023/11/18 05:46:14;;;;;;;;;11.14;10.29;;;;;4.40;92.41;99497.25;6324664;20;1808762;-49
2023/11/18 05:48:45;;;;;;;;;12.00;11.00;;;;;4.38;92.46;99504.44;6329418;20;1817943;-50
2023/11/18 05:51:13;;;;;;;;;15.00;12.00;;;;;4.36;92.90;99506.25;6315493;20;2814993;-50
2023/11/18 05:53:45;;;;;;;;;11.00;10.00;;;;;4.39;92.66;99511.47;6280295;20;2784745;-41
2023/11/18 05:56:18;;;;;;;;;17.33;12.00;;;;;4.43;92.58;99513.09;6280530;20;2807607;-43
2023/11/18 05:58:46;;;;;;;;;9.50;9.50;;;;;4.49;92.54;99517.28;6313781;20;2753439;-42
2023/11/18 06:01:16;;;;;;;;;14.00;12.00;;;;;4.35;92.87;99521.34;6280479;20;2790960;-43
2023/11/18 06:03:45;;;;;;;;;17.00;15.67;;;;;4.42;92.72;99526.41;6281911;20;2820181;-44
2023/11/18 06:06:16;;;;;;;;;13.67;11.00;;;;;4.48;92.21;99526.19;6313485;20;3526290;-43
2023/11/18 06:08:54;;;;;;;;;16.00;13.00;;;;;4.40;93.01;99529.16;6354361;20;1831595;-44
2023/11/18 06:11:23;;;;;;;;;17.50;11.00;;;;;4.64;92.01;99529.13;6311730;20;2802382;-44
2023/11/18 06:13:54;;;;;;;;;14.00;12.00;;;;;4.47;93.07;99541.25;6288216;20;2792059;-46
2023/11/18 06:16:25;;;;;;;;;10.25;10.25;;;;;4.44;92.72;99541.38;6296159;20;1831636;-44
2023/11/18 06:18:56;;;;;;;;;15.00;15.00;;;;;4.55;92.40;99546.28;6310521;20;2797309;-45
2023/11/18 06:21:30;;;;;;;;;9.00;9.00;;;;;4.56;92.42;99550.69;6281551;20;2758601;-45
2023/11/18 06:24:04;;;;;;;;;13.33;12.00;;;;;4.76;91.35;99537.44;6278105;20;3534644;-43
2023/11/18 06:26:35;;;;;;;;;13.20;13.20;;;;;4.79;90.90;99557.72;6337334;20;2810720;-47
2023/11/18 06:29:05;;;;;;;;;11.00;11.00;;;;;4.91;90.76;99557.25;6283305;20;2796259;-44
2023/11/18 06:31:35;;;;;;;;;11.00;10.00;;;;;5.06;90.25;99555.78;6307121;20;2790048;-50
2023/11/18 06:34:07;;;;;;;;;11.50;7.67;;;;;5.03;89.62;99561.22;6325154;20;1802893;-47
2023/11/18 06:36:37;;;;;;;;;13.60;11.40;;;;;5.27;88.88;99549.56;6306063;20;2796184;-44
2023/11/18 06:39:08;;;;;;;;;12.00;11.00;;;;;5.76;87.03;99549.22;6283199;20;2789772;-44
2023/11/18 06:41:39;;;;;;;;;14.00;14.00;;;;;8.91;73.89;99560.16;6277678;20;2802402;-46
2023/11/18 06:44:12;;;;;;;;;9.00;9.00;;;;;10.32;62.49;99571.44;6282587;20;2754586;-45
2023/11/18 06:46:42;;;;;;;;;10.00;10.00;;;;;10.33;60.01;99575.81;6303723;20;2798174;-45
2023/11/18 06:49:15;;;;;;;;;12.50;11.00;;;;;11.41;56.19;99576.94;6278918;20;2812828;-46
2023/11/18 06:51:44;;;;;;;;;13.00;12.00;;;;;10.70;55.69;99578.88;6278413;20;3536880;-47
2023/11/18 06:54:14;;;;;;;;;10.40;10.40;;;;;10.09;58.76;99582.69;6333157;20;2794059;-46
2023/11/18 06:56:43;;;;;;;;;11.00;9.50;;;;;9.10;63.13;99581.41;6279285;20;2781575;-46
2023/11/18 06:59:13;;;;;;;;;9.00;9.00;;;;;8.80;64.61;99576.84;6285116;20;2737865;-48
2023/11/18 07:01:45;;;;;;;;;6.40;6.40;;;;;8.87;64.22;99580.00;6302199;20;2739981;-44
2023/11/18 07:04:14;;;;;;;;;16.00;12.50;;;;;9.32;60.07;99584.56;6313006;20;2818000;-44
2023/11/18 07:06:44;;;;;;;;;14.00;10.33;;;;;6.31;74.54;99581.41;6280480;20;2785791;-49
2023/11/18 07:09:20;;;;;;;;;16.50;16.00;;;;;6.09;78.95;99580.69;6314416;20;2818029;-47
2023/11/18 07:11:51;;;;;;;;;8.25;7.25;;;;;6.03;80.18;99586.25;6297323;20;1814062;-45
2023/11/18 07:14:20;;;;;;;;;15.00;13.33;;;;;5.88;81.20;99583.31;6311179;20;3537804;-45
2023/11/18 07:16:48;;;;;;;;;14.50;11.00;;;;;6.29;80.41;99588.66;6309849;20;2786792;-46
2023/11/18 07:19:23;;;;;;;;;9.00;9.00;;;;;5.99;81.58;99587.34;6281233;20;2759661;-49
2023/11/18 07:21:52;;;;;;;;;13.50;8.00;;;;;6.23;81.40;99590.72;6280872;20;2751318;-40
2023/11/18 07:24:22;;;;;;;;;8.83;6.50;;;;;6.18;80.63;99582.91;6320153;20;1800294;-41
2023/11/18 07:26:51;;;;;;;;;9.00;9.00;;;;;6.23;80.14;99588.03;6303695;20;1809703;-40
2023/11/18 07:29:19;;;;;;;;;10.00;9.00;;;;;6.14;80.00;99576.00;6284290;20;2742066;-52
2023/11/18 07:31:49;;;;;;;;;14.20;10.20;;;;;6.34;78.95;99585.75;6336186;20;2789953;-48
2023/11/18 07:34:17;;;;;;;;;9.00;9.00;;;;;6.24;79.29;99580.00;6278697;20;2748235;-52
2023/11/18 07:36:47;;;;;;;;;9.50;8.75;;;;;6.30;79.38;99581.50;6294546;20;1814934;-48
2023/11/18 07:39:16;;;;;;;;;9.50;8.00;;;;;6.37;78.25;99594.50;6329795;20;1804580;-49
2023/11/18 07:41:44;;;;;;;;;1.67;1.67;;;;;6.40;77.63;99592.59;6313920;20;3451072;-48
2023/11/18 07:44:12;;;;;;;;;7.00;7.00;;;;;6.47;77.21;99592.25;6311277;20;2740906;-53
2023/11/18 07:46:42;;;;;;;;;8.00;8.00;;;;;6.54;77.45;99598.19;6300182;20;1808790;-48
2023/11/18 07:49:11;;;;;;;;;7.50;7.00;;;;;6.37;77.49;99602.50;6314344;20;2742070;-50
2023/11/18 07:51:41;;;;;;;;;8.40;8.40;;;;;6.93;75.99;99602.56;6332507;20;2737797;-51
2023/11/18 07:54:10;;;;;;;;;10.00;8.00;;;;;6.80;75.84;99594.28;6314689;20;2753414;-52
2023/11/18 07:56:40;;;;;;;;;9.50;8.50;;;;;6.74;76.86;99598.13;6276474;20;2750335;-49
2023/11/18 07:59:09;;;;;;;;;6.75;6.75;;;;;6.78;75.46;99591.69;6328553;20;1813981;-51
2023/11/18 08:01:45;;;;;;;;;7.00;5.50;;;;;6.75;75.02;99597.16;6310834;20;2748307;-48
2023/11/18 08:04:14;;;;;;;;;7.00;5.50;;;;;6.79;74.88;99593.44;6313250;20;2751352;-50
2023/11/18 08:06:43;;;;;;;;;8.50;8.00;;;;;6.90;74.49;99589.34;6318264;20;2744036;-51
2023/11/18 08:09:13;;;;;;;;;5.00;5.00;;;;;6.99;73.93;99597.78;6316066;20;2735727;-51
2023/11/18 08:11:41;;;;;;;;;9.00;5.00;;;;;7.11;74.33;99603.47;6316444;20;2727368;-54
2023/11/18 08:14:10;;;;;;;;;3.25;3.25;;;;;7.14;73.29;99598.84;6335231;20;1812864;-51
2023/11/18 08:16:38;;;;;;;;;7.00;7.00;;;;;7.18;73.26;99605.75;6319179;20;2742020;-49
2023/11/18 08:19:09;;;;;;;;;10.50;10.50;;;;;7.16;73.25;99607.66;6313437;20;2791997;-48
2023/11/18 08:21:38;;;;;;;;;7.75;7.75;;;;;7.42;71.82;99605.50;6304755;20;1813920;-47
2023/11/18 08:24:08;;;;;;;;;8.50;5.00;;;;;7.21;72.58;99610.97;6336483;20;1810200;-49
2023/11/18 08:26:36;;;;;;;;;5.00;5.00;;;;;7.48;72.12;99613.22;6319776;20;2747278;-50
2023/11/18 08:29:06;;;;;;;;;4.25;4.25;;;;;7.13;71.86;99606.94;6301959;20;1810841;-53
2023/11/18 08:31:35;;;;;;;;;5.00;5.00;;;;;7.38;71.68;99609.28;6320137;20;2750412;-50
2023/11/18 08:34:04;;;;;;;;;7.00;4.50;;;;;7.44;71.49;99616.97;6288590;20;2743003;-49
2023/11/18 08:36:33;;;;;;;;;7.50;5.00;;;;;7.44;71.43;99622.31;6303975;20;1819212;-51
2023/11/18 08:39:03;;;;;;;;;8.25;6.75;;;;;7.40;71.51;99607.41;6334585;20;1818977;-51
2023/11/18 08:41:32;;;;;;;;;9.00;7.00;;;;;7.81;70.45;99613.28;6321410;20;2736734;-48
2023/11/18 08:44:02;;;;;;;;;7.00;5.00;;;;;7.65;70.48;99623.91;6316742;20;2750494;-51
2023/11/18 08:46:52;;;;;;;;;4.75;4.75;;;;;7.46;70.63;99605.28;6305092;20;1809864;-52
2023/11/18 08:49:21;;;;;;;;;7.00;7.00;;;;;7.90;69.55;99610.16;6334599;20;1815670;-54
2023/11/18 08:51:55;;;;;;;;;6.50;6.50;;;;;8.03;73.61;99609.50;6335382;20;1814965;-49
2023/11/18 08:54:36;;;;;;;;;11.00;9.00;;;;;7.98;72.02;99611.56;6317355;20;2774369;-52
2023/11/18 08:57:23;;;;;;;;;4.00;4.00;;;;;8.02;69.64;99616.66;6286791;20;3440896;-50
2023/11/18 08:59:52;;;;;;;;;4.00;4.00;;;;;7.91;68.76;99608.34;6289812;20;2756657;-50
2023/11/18 09:02:23;;;;;;;;;4.00;4.00;;;;;7.92;69.22;99618.09;6307421;20;1807685;-51
2023/11/18 09:04:55;;;;;;;;;4.75;3.00;;;;;7.76;70.27;99612.66;6336651;20;1817528;-50
2023/11/18 09:07:23;;;;;;;;;6.00;4.00;;;;;7.98;69.33;99611.56;6319394;20;2748347;-48
2023/11/18 09:09:52;;;;;;;;;4.50;4.50;;;;;7.92;68.54;99623.44;6286331;20;2749474;-54
2023/11/18 09:12:21;;;;;;;;;7.75;4.75;;;;;7.61;68.49;99614.31;6303034;20;1821340;-52
2023/11/18 09:14:51;;;;;;;;;4.25;4.25;;;;;7.56;68.12;99613.69;6335992;20;1815444;-48
2023/11/18 09:17:22;;;;;;;;;4.00;4.00;;;;;7.91;67.25;99621.72;6317968;20;2743099;-52
2023/11/18 09:19:52;;;;;;;;;5.00;5.00;;;;;8.02;67.88;99623.81;6318425;20;2739892;-50
2023/11/18 09:22:21;;;;;;;;;4.00;4.00;;;;;8.01;67.65;99620.28;6287277;20;2749304;-51
2023/11/18 09:24:50;;;;;;;;;2.00;2.00;;;;;7.98;67.36;99620.47;6303226;20;1816071;-48
2023/11/18 09:27:18;;;;;;;;;5.00;4.00;;;;;7.69;68.10;99614.81;6315953;20;2755558;-53
2023/11/18 09:29:49;;;;;;;;;6.25;4.25;;;;;7.99;67.12;99614.16;6305038;20;1818139;-50
2023/11/18 09:32:18;;;;;;;;;3.00;3.00;;;;;7.80;68.40;99618.75;6331833;20;1808639;-52
2023/11/18 09:34:48;;;;;;;;;5.00;3.50;;;;;7.97;68.13;99625.88;6317979;20;2748217;-53
2023/11/18 09:37:17;;;;;;;;;5.25;5.25;;;;;8.22;67.21;99615.63;6333774;20;1805588;-50
2023/11/18 09:39:45;;;;;;;;;4.00;4.00;;;;;8.41;68.18;99626.25;6318273;20;2752357;-49
2023/11/18 09:42:18;;;;;;;;;3.00;2.00;;;;;8.22;66.81;99612.94;6273934;20;2742468;-51
2023/11/18 09:44:48;;;;;;;;;5.00;3.50;;;;;8.13;67.16;99619.63;6319288;20;2753528;-51
2023/11/18 09:47:24;;;;;;;;;5.50;4.00;;;;;8.27;65.92;99608.22;6284077;20;2756560;-48
2023/11/18 09:49:55;;;;;;;;;3.00;3.00;;;;;8.21;66.25;99619.22;6282460;20;2746105;-50
2023/11/18 09:52:26;;;;;;;;;3.00;3.00;;;;;8.43;65.76;99628.84;6284729;20;2738885;-50
2023/11/18 09:55:32;;;;;;;;;3.25;3.25;;;;;8.60;64.55;99615.41;6330899;20;1809974;-50
2023/11/18 09:58:08;;;;;;;;;3.00;3.00;;;;;8.25;65.09;99622.63;6313934;20;2737821;-50
2023/11/18 10:00:41;;;;;;;;;9.00;5.00;;;;;8.47;65.74;99633.94;6316617;20;2728560;-49
2023/11/18 10:03:12;;;;;;;;;5.00;3.00;;;;;8.21;65.61;99621.91;6316241;20;2754603;-51
2023/11/18 10:05:44;;;;;;;;;5.00;4.00;;;;;8.74;64.37;99638.72;6285227;20;2750311;-51
2023/11/18 10:08:16;;;;;;;;;3.00;3.00;;;;;8.40;66.29;99640.56;6301838;20;1807637;-52
2023/11/18 10:10:46;;;;;;;;;3.50;2.00;;;;;8.35;65.74;99627.41;6317174;20;2738857;-49
2023/11/18 10:13:34;;;;;;;;;4.00;4.00;;;;;8.25;65.73;99630.66;6285820;20;2752365;-51
2023/11/18 10:16:05;;;;;;;;;4.00;4.00;;;;;8.23;66.33;99635.22;6285467;20;2750316;-48
2023/11/18 10:18:36;;;;;;;;;5.00;3.50;;;;;8.47;64.93;99644.63;6279162;20;2754451;-50
2023/11/18 10:21:07;;;;;;;;;4.00;4.00;;;;;8.43;64.86;99648.44;6285128;20;2754612;-50
2023/11/18 10:23:37;;;;;;;;;4.00;4.00;;;;;8.53;64.88;99647.00;6286848;20;2752444;-51
2023/11/18 10:26:07;;;;;;;;;3.00;3.00;;;;;8.64;64.68;99658.94;6298074;20;1809786;-50
2023/11/18 10:28:37;;;;;;;;;5.00;4.75;;;;;8.57;65.76;99656.56;6330125;20;1814960;-51
2023/11/18 10:31:09;;;;;;;;;3.00;3.00;;;;;8.76;65.10;99661.78;6332809;20;1815472;-50
2023/11/18 10:33:43;;;;;;;;;4.00;4.00;;;;;8.95;65.81;99658.97;6316420;20;2745150;-50
2023/11/18 10:36:25;;;;;;;;;4.00;4.00;;;;;8.55;65.11;99657.59;6296760;20;1807761;-52
2023/11/18 10:38:56;;;;;;;;;3.25;3.25;;;;;8.80;65.75;99643.75;6332057;20;1815937;-52
2023/11/18 10:41:25;;;;;;;;;4.50;4.00;;;;;8.77;65.35;99649.28;6329021;20;1815026;-50
2023/11/18 10:44:15;;;;;;;;;4.00;4.00;;;;;8.53;64.78;99662.16;6313059;20;2749254;-53
2023/11/18 10:46:58;;;;;;;;;2.33;2.33;;;;;8.82;64.69;99663.28;6303950;20;1802442;-50
2023/11/18 10:49:36;;;;;;;;;8.60;6.20;;;;;8.87;64.77;99661.19;6354931;20;2480519;-49
2023/11/18 10:52:08;;;;;;;;;3.00;3.00;;;;;8.73;63.75;99669.13;6311327;20;2750295;-47
2023/11/18 10:54:37;;;;;;;;;4.50;3.50;;;;;8.57;63.87;99667.28;6282641;20;2750302;-49
2023/11/18 10:57:07;;;;;;;;;4.00;4.00;;;;;8.57;63.82;99664.59;6282731;20;2746155;-51
2023/11/18 10:59:36;;;;;;;;;5.00;5.00;;;;;8.56;63.34;99673.59;6282442;20;2750281;-52
2023/11/18 11:02:23;;;;;;;;;4.00;4.00;;;;;8.86;62.68;99680.03;6278869;20;2747275;-51
2023/11/18 11:04:52;;;;;;;;;6.00;5.00;;;;;9.05;63.02;99678.06;6286780;20;2745115;-49
2023/11/18 11:07:23;;;;;;;;;4.00;3.00;;;;;8.66;63.15;99678.44;6312323;20;2752388;-51
2023/11/18 11:09:56;;;;;;;;;3.00;3.00;;;;;8.95;63.33;99677.72;6294960;20;1804493;-47
2023/11/18 11:12:26;;;;;;;;;5.00;2.00;;;;;8.94;62.32;99689.38;6313639;20;2740932;-48
2023/11/18 11:15:28;;;;;;;;;3.00;3.00;;;;;8.94;62.41;99689.38;6332190;20;1808691;-50
2023/11/18 11:18:15;;;;;;;;;2.00;2.00;;;;;8.69;61.97;99683.59;6297805;20;1808760;-48
2023/11/18 11:21:19;;;;;;;;;1.75;1.75;;;;;8.83;62.95;99683.75;6329895;20;1802489;-45
2023/11/18 11:23:59;;;;;;;;;3.25;3.00;;;;;9.00;62.19;99683.69;6327717;20;1801365;-49
2023/11/18 11:26:56;;;;;;;;;3.00;3.00;;;;;8.85;62.86;99683.69;6314305;20;2753481;-49
2023/11/18 11:29:52;;;;;;;;;3.00;3.00;;;;;9.13;62.28;99696.38;6280934;20;2740915;-48
2023/11/18 11:32:45;;;;;;;;;2.00;2.00;;;;;9.05;61.41;99706.66;6297014;20;1809277;-46
2023/11/18 11:35:24;;;;;;;;;1.00;1.00;;;;;9.24;62.42;99696.66;6327780;20;1813954;-47